Time;durP1;ratioP1;P1;durP2;ratioP2;P2;SDS_P1;SDS_P2;PMS_P1;PMS_P2;Temp;Humidity;BMP_temperature;BMP_pressure;BME280_temperature;BME280_humidity;BME280_pressure;Samples;Min_cycle;Max_cycle;Signal;HPM_P1;HPM_P2
2021/01/03 00:00:56;;;;;;;5.68;3.10;;;;;;;;;;4996743;28;20057;-48
2021/01/03 00:03:22;;;;;;;5.45;3.00;;;;;;;;;;5011236;28;20044;-47
2021/01/03 00:05:48;;;;;;;3.80;2.80;;;;;;;;;;5000889;28;20035;-47
2021/01/03 00:08:14;;;;;;;5.22;3.10;;;;;;;;;;4995543;28;20042;-47
2021/01/03 00:10:40;;;;;;;5.28;3.10;;;;;;;;;;4998187;28;20026;-48
2021/01/03 00:13:06;;;;;;;5.35;2.90;;;;;;;;;;5001741;28;20350;-47
2021/01/03 00:15:32;;;;;;;3.80;2.63;;;;;;;;;;4999499;28;20021;-48
2021/01/03 00:17:58;;;;;;;4.20;2.88;;;;;;;;;;5001562;28;20034;-48
2021/01/03 00:20:25;;;;;;;4.13;2.80;;;;;;;;;;5000658;28;20037;-48
2021/01/03 00:22:51;;;;;;;3.72;2.53;;;;;;;;;;5000677;28;20117;-48
2021/01/03 00:25:17;;;;;;;3.70;2.58;;;;;;;;;;5001304;28;20034;-49
2021/01/03 00:27:44;;;;;;;4.80;3.20;;;;;;;;;;5000173;28;20018;-49
2021/01/03 00:30:11;;;;;;;4.70;2.90;;;;;;;;;;5001235;28;20022;-48
2021/01/03 00:32:36;;;;;;;5.28;2.92;;;;;;;;;;4998447;28;20018;-48
2021/01/03 00:35:03;;;;;;;5.03;3.05;;;;;;;;;;5001226;28;20373;-48
2021/01/03 00:37:29;;;;;;;4.60;2.78;;;;;;;;;;5000402;28;20065;-48
2021/01/03 00:39:55;;;;;;;4.13;2.70;;;;;;;;;;5000866;28;20484;-48
2021/01/03 00:42:21;;;;;;;4.05;2.72;;;;;;;;;;4999462;28;20089;-48
2021/01/03 00:44:47;;;;;;;4.50;2.95;;;;;;;;;;5000239;28;20481;-48
2021/01/03 00:47:13;;;;;;;4.40;2.60;;;;;;;;;;5001089;28;20443;-48
2021/01/03 00:49:39;;;;;;;4.65;2.85;;;;;;;;;;4999447;28;20100;-48
2021/01/03 00:52:05;;;;;;;4.95;2.90;;;;;;;;;;4999591;28;20469;-48
2021/01/03 00:54:31;;;;;;;4.95;2.83;;;;;;;;;;4999807;28;20077;-49
2021/01/03 00:56:57;;;;;;;4.85;2.60;;;;;;;;;;5000491;28;20553;-48
2021/01/03 00:59:23;;;;;;;4.15;2.50;;;;;;;;;;5000046;28;20023;-48
2021/01/03 01:01:49;;;;;;;4.95;2.50;;;;;;;;;;4999101;28;20030;-48
2021/01/03 01:04:15;;;;;;;4.18;2.58;;;;;;;;;;5000706;28;20034;-48
2021/01/03 01:06:41;;;;;;;5.97;2.80;;;;;;;;;;4998960;28;20401;-48
2021/01/03 01:09:07;;;;;;;4.60;3.00;;;;;;;;;;5000784;28;20046;-48
2021/01/03 01:11:33;;;;;;;4.63;2.53;;;;;;;;;;4998333;28;20034;-48
2021/01/03 01:13:59;;;;;;;4.00;2.53;;;;;;;;;;4999198;28;20033;-48
2021/01/03 01:16:25;;;;;;;4.72;2.92;;;;;;;;;;5006408;28;20034;-49
2021/01/03 01:18:51;;;;;;;3.63;2.58;;;;;;;;;;4999690;28;20030;-48
2021/01/03 01:21:17;;;;;;;3.75;2.67;;;;;;;;;;5000528;28;20064;-48
2021/01/03 01:23:43;;;;;;;3.85;2.75;;;;;;;;;;4999816;28;20026;-48
2021/01/03 01:26:09;;;;;;;4.10;2.70;;;;;;;;;;4999468;28;20370;-48
2021/01/03 01:28:35;;;;;;;5.93;2.83;;;;;;;;;;4999126;28;20096;-48
2021/01/03 01:31:01;;;;;;;3.58;2.60;;;;;;;;;;5006705;28;20037;-48
2021/01/03 01:33:27;;;;;;;4.53;3.00;;;;;;;;;;4999473;28;20117;-47
2021/01/03 01:35:53;;;;;;;3.65;2.60;;;;;;;;;;4999259;28;20054;-48
2021/01/03 01:38:19;;;;;;;3.60;2.75;;;;;;;;;;4999864;28;20179;-48
2021/01/03 01:40:45;;;;;;;4.03;2.80;;;;;;;;;;4999124;28;20041;-48
2021/01/03 01:43:12;;;;;;;4.22;3.10;;;;;;;;;;5000125;28;20026;-49
2021/01/03 01:45:38;;;;;;;4.45;2.90;;;;;;;;;;4998185;28;20399;-48
2021/01/03 01:48:06;;;;;;;4.60;2.67;;;;;;;;;;5005683;28;20460;-48
2021/01/03 01:50:33;;;;;;;4.65;3.10;;;;;;;;;;4996729;28;20065;-48
2021/01/03 01:52:59;;;;;;;4.38;2.97;;;;;;;;;;5006590;28;20022;-47
2021/01/03 01:55:31;;;;;;;4.97;2.83;;;;;;;;;;4997907;28;20030;-48
2021/01/03 01:58:11;;;;;;;5.32;3.10;;;;;;;;;;5005839;28;20117;-48
2021/01/03 02:00:38;;;;;;;5.78;3.50;;;;;;;;;;4997204;28;20026;-48
2021/01/03 02:03:20;;;;;;;5.90;3.53;;;;;;;;;;5006788;28;20026;-48
2021/01/03 02:05:49;;;;;;;4.47;2.90;;;;;;;;;;4997863;28;20030;-48
2021/01/03 02:08:30;;;;;;;5.40;3.28;;;;;;;;;;4999999;28;20030;-48
2021/01/03 02:10:56;;;;;;;4.47;3.05;;;;;;;;;;5000098;28;20034;-48
2021/01/03 02:13:26;;;;;;;4.93;3.30;;;;;;;;;;5000916;28;20093;-48
2021/01/03 02:15:53;;;;;;;5.60;3.13;;;;;;;;;;5008357;28;20027;-48
2021/01/03 02:18:19;;;;;;;5.57;3.50;;;;;;;;;;5003503;28;20026;-48
2021/01/03 02:21:04;;;;;;;5.88;3.70;;;;;;;;;;5006766;28;20094;-49
2021/01/03 02:23:46;;;;;;;4.30;3.40;;;;;;;;;;5002724;28;20449;-48
2021/01/03 02:26:12;;;;;;;5.20;3.88;;;;;;;;;;5010218;28;20049;-48
2021/01/03 02:28:39;;;;;;;6.50;3.58;;;;;;;;;;5001809;28;20369;-48
2021/01/03 02:31:05;;;;;;;5.15;3.58;;;;;;;;;;5010384;28;20177;-48
2021/01/03 02:33:31;;;;;;;5.85;3.63;;;;;;;;;;5002424;28;20515;-48
2021/01/03 02:35:59;;;;;;;5.18;3.47;;;;;;;;;;5003221;28;20038;-49
2021/01/03 02:38:26;;;;;;;6.75;4.00;;;;;;;;;;5001358;28;20084;-48
2021/01/03 02:40:52;;;;;;;5.05;3.75;;;;;;;;;;5002577;28;20069;-48
2021/01/03 02:43:18;;;;;;;6.43;3.90;;;;;;;;;;5003321;28;20033;-48
2021/01/03 02:45:44;;;;;;;5.93;3.95;;;;;;;;;;5002034;28;20027;-48
2021/01/03 02:48:11;;;;;;;7.40;4.70;;;;;;;;;;5003113;28;20030;-48
2021/01/03 02:50:37;;;;;;;6.55;4.60;;;;;;;;;;5000436;28;20022;-47
2021/01/03 02:53:03;;;;;;;5.40;3.90;;;;;;;;;;5002484;28;20023;-48
2021/01/03 02:55:29;;;;;;;6.10;3.95;;;;;;;;;;5002273;28;20030;-47
2021/01/03 02:57:55;;;;;;;6.20;4.50;;;;;;;;;;5002635;28;20487;-48
2021/01/03 03:00:22;;;;;;;6.13;4.15;;;;;;;;;;5002394;28;20026;-48
2021/01/03 03:02:48;;;;;;;7.05;4.45;;;;;;;;;;5002131;28;20030;-49
2021/01/03 03:05:14;;;;;;;7.25;4.78;;;;;;;;;;5002883;28;20495;-48
2021/01/03 03:07:40;;;;;;;6.03;4.57;;;;;;;;;;5001461;28;20085;-48
2021/01/03 03:10:06;;;;;;;7.07;4.85;;;;;;;;;;5008771;28;20022;-48
2021/01/03 03:12:32;;;;;;;6.20;4.78;;;;;;;;;;5001710;28;20022;-48
2021/01/03 03:14:58;;;;;;;7.80;5.15;;;;;;;;;;5001295;28;20029;-48
2021/01/03 03:17:24;;;;;;;6.93;4.68;;;;;;;;;;5000369;28;21114;-48
2021/01/03 03:19:50;;;;;;;6.93;5.03;;;;;;;;;;5001683;28;20054;-48
2021/01/03 03:22:16;;;;;;;6.05;4.68;;;;;;;;;;5002473;28;20052;-49
2021/01/03 03:24:42;;;;;;;8.85;5.22;;;;;;;;;;5000178;28;20026;-48
2021/01/03 03:27:08;;;;;;;7.28;5.18;;;;;;;;;;5002044;28;20100;-49
2021/01/03 03:29:35;;;;;;;7.65;5.40;;;;;;;;;;5001299;28;20045;-47
2021/01/03 03:32:01;;;;;;;7.88;5.53;;;;;;;;;;5002343;28;20091;-48
2021/01/03 03:34:27;;;;;;;7.38;5.10;;;;;;;;;;5001748;28;20504;-48
2021/01/03 03:36:54;;;;;;;8.15;5.70;;;;;;;;;;5015518;28;20038;-48
2021/01/03 03:39:20;;;;;;;8.73;5.22;;;;;;;;;;5000443;28;20022;-48
2021/01/03 03:41:46;;;;;;;9.43;5.90;;;;;;;;;;5001344;28;20034;-48
2021/01/03 03:44:12;;;;;;;8.20;5.75;;;;;;;;;;5001336;28;20038;-48
2021/01/03 03:46:38;;;;;;;7.95;6.00;;;;;;;;;;4999964;28;20070;-48
2021/01/03 03:49:04;;;;;;;9.15;6.28;;;;;;;;;;5002247;28;20096;-48
2021/01/03 03:51:30;;;;;;;7.90;5.65;;;;;;;;;;4999771;28;20029;-48
2021/01/03 03:53:56;;;;;;;8.32;5.90;;;;;;;;;;5001623;28;20428;-48
2021/01/03 03:56:22;;;;;;;8.70;6.20;;;;;;;;;;5001148;28;20026;-48
2021/01/03 03:58:48;;;;;;;7.50;5.38;;;;;;;;;;5001100;28;20028;-47
2021/01/03 04:01:14;;;;;;;9.13;6.55;;;;;;;;;;5000902;28;20030;-48
2021/01/03 04:03:40;;;;;;;8.88;6.82;;;;;;;;;;4999850;28;20030;-47
2021/01/03 04:06:06;;;;;;;8.18;6.32;;;;;;;;;;4999218;28;20025;-48
2021/01/03 04:08:32;;;;;;;9.50;6.60;;;;;;;;;;4998546;28;20026;-48
2021/01/03 04:10:58;;;;;;;8.85;6.32;;;;;;;;;;5001617;28;20026;-49
2021/01/03 04:13:24;;;;;;;8.45;6.80;;;;;;;;;;5000625;28;20109;-48
2021/01/03 04:15:50;;;;;;;8.95;6.82;;;;;;;;;;5000660;28;20537;-49
2021/01/03 04:18:16;;;;;;;9.32;6.88;;;;;;;;;;5001500;28;20033;-48
2021/01/03 04:20:42;;;;;;;9.32;6.60;;;;;;;;;;5000037;28;20112;-48
2021/01/03 04:23:08;;;;;;;9.00;6.93;;;;;;;;;;5001313;28;20088;-48
2021/01/03 04:25:34;;;;;;;9.93;6.78;;;;;;;;;;5000099;28;20022;-48
2021/01/03 04:28:00;;;;;;;9.88;7.00;;;;;;;;;;5007783;28;20188;-48
2021/01/03 04:30:26;;;;;;;8.40;6.70;;;;;;;;;;5000226;28;20129;-47
2021/01/03 04:32:53;;;;;;;9.75;7.05;;;;;;;;;;5000454;28;20019;-48
2021/01/03 04:35:19;;;;;;;9.30;7.20;;;;;;;;;;5000842;28;20022;-48
2021/01/03 04:37:45;;;;;;;10.02;7.53;;;;;;;;;;5004114;28;20037;-48
2021/01/03 04:40:18;;;;;;;9.75;7.38;;;;;;;;;;4999643;28;20030;-48
2021/01/03 04:42:44;;;;;;;10.23;7.68;;;;;;;;;;5000287;28;20501;-48
2021/01/03 04:45:11;;;;;;;10.25;7.80;;;;;;;;;;5000810;28;20046;-48
2021/01/03 04:47:45;;;;;;;9.75;7.97;;;;;;;;;;4999511;28;20034;-48
2021/01/03 04:50:14;;;;;;;9.57;7.75;;;;;;;;;;5000246;28;20041;-48
2021/01/03 04:52:49;;;;;;;10.43;8.00;;;;;;;;;;4999634;28;20030;-48
2021/01/03 04:55:18;;;;;;;9.90;8.18;;;;;;;;;;5000387;28;20432;-48
2021/01/03 04:57:47;;;;;;;10.10;7.95;;;;;;;;;;5004797;28;20160;-48
2021/01/03 05:00:16;;;;;;;9.82;7.68;;;;;;;;;;5000842;28;20503;-48
2021/01/03 05:02:49;;;;;;;9.80;8.07;;;;;;;;;;4999398;28;20022;-48
2021/01/03 05:05:44;;;;;;;9.95;8.23;;;;;;;;;;4999372;28;20040;-47
2021/01/03 05:08:16;;;;;;;11.13;8.25;;;;;;;;;;4979324;28;20034;-48
2021/01/03 05:10:42;;;;;;;9.48;7.90;;;;;;;;;;5000505;28;20481;-48
2021/01/03 05:13:08;;;;;;;11.52;8.55;;;;;;;;;;5000237;28;20035;-48
2021/01/03 05:15:34;;;;;;;11.57;9.35;;;;;;;;;;4999089;28;20033;-47
2021/01/03 05:18:01;;;;;;;10.77;8.52;;;;;;;;;;5000222;28;20101;-48
2021/01/03 05:20:27;;;;;;;11.38;8.65;;;;;;;;;;4999631;28;20048;-48
2021/01/03 05:22:53;;;;;;;11.52;8.88;;;;;;;;;;4999889;28;20025;-48
2021/01/03 05:25:20;;;;;;;11.13;9.05;;;;;;;;;;4999885;28;20030;-48
2021/01/03 05:28:06;;;;;;;10.98;8.52;;;;;;;;;;4999179;28;20022;-48
2021/01/03 05:30:32;;;;;;;12.50;8.77;;;;;;;;;;4998240;28;20112;-48
2021/01/03 05:33:08;;;;;;;10.82;8.88;;;;;;;;;;4999953;28;20033;-49
2021/01/03 05:35:38;;;;;;;10.43;8.75;;;;;;;;;;4998168;28;20038;-48
2021/01/03 05:38:05;;;;;;;11.60;9.05;;;;;;;;;;5007133;28;20084;-48
2021/01/03 05:40:41;;;;;;;10.98;9.10;;;;;;;;;;4997130;28;20026;-48
2021/01/03 05:43:09;;;;;;;12.00;9.27;;;;;;;;;;5006045;28;20050;-48
2021/01/03 05:45:36;;;;;;;11.00;8.75;;;;;;;;;;4998666;28;20402;-47
2021/01/03 05:48:02;;;;;;;10.70;8.68;;;;;;;;;;5006070;28;20473;-48
2021/01/03 05:50:28;;;;;;;11.10;8.77;;;;;;;;;;4998020;28;20026;-48
2021/01/03 05:52:57;;;;;;;10.82;8.88;;;;;;;;;;4999372;28;20048;-48
2021/01/03 05:55:24;;;;;;;12.13;9.38;;;;;;;;;;4998989;28;20030;-48
2021/01/03 05:57:50;;;;;;;11.75;9.23;;;;;;;;;;4999087;28;20105;-47
2021/01/03 06:00:16;;;;;;;12.32;9.45;;;;;;;;;;4999720;28;20029;-48
2021/01/03 06:02:42;;;;;;;10.43;8.73;;;;;;;;;;4998356;28;20035;-47
2021/01/03 06:05:09;;;;;;;12.18;9.48;;;;;;;;;;4999597;28;20041;-48
2021/01/03 06:07:36;;;;;;;11.38;9.70;;;;;;;;;;4997221;28;20031;-48
2021/01/03 06:10:02;;;;;;;13.05;8.90;;;;;;;;;;5006254;28;20117;-48
2021/01/03 06:12:28;;;;;;;12.38;9.35;;;;;;;;;;4997555;28;20053;-48
2021/01/03 06:14:59;;;;;;;11.43;8.90;;;;;;;;;;4999095;28;20041;-48
2021/01/03 06:17:35;;;;;;;11.55;9.15;;;;;;;;;;4997463;28;20109;-47
2021/01/03 06:20:06;;;;;;;11.57;9.77;;;;;;;;;;4999603;28;20065;-48
2021/01/03 06:22:47;;;;;;;12.13;9.88;;;;;;;;;;4997636;28;20034;-48
2021/01/03 06:25:15;;;;;;;12.75;9.02;;;;;;;;;;4999367;28;20073;-48
2021/01/03 06:27:41;;;;;;;12.55;9.77;;;;;;;;;;4999479;28;20035;-48
2021/01/03 06:30:08;;;;;;;12.40;9.20;;;;;;;;;;4998260;28;20034;-48
2021/01/03 06:32:52;;;;;;;12.35;9.48;;;;;;;;;;4998347;28;20035;-47
2021/01/03 06:35:21;;;;;;;11.70;9.65;;;;;;;;;;4999382;28;20034;-47
2021/01/03 06:37:47;;;;;;;11.27;9.70;;;;;;;;;;4998794;28;20061;-48
2021/01/03 06:40:13;;;;;;;11.50;9.27;;;;;;;;;;4999542;28;20404;-47
2021/01/03 06:42:45;;;;;;;12.32;9.82;;;;;;;;;;4999076;28;20023;-48
2021/01/03 06:45:11;;;;;;;;;;;;;;;;;;4997991;28;20022;-48
2021/01/03 06:47:40;;;;;;;13.15;10.00;;;;;;;;;;4997868;28;20308;-48
2021/01/03 06:50:25;;;;;;;12.20;9.90;;;;;;;;;;4999039;28;20085;-48
2021/01/03 06:53:09;;;;;;;11.70;10.00;;;;;;;;;;4998625;28;20034;-48
2021/01/03 06:55:47;;;;;;;11.20;9.13;;;;;;;;;;4997379;28;20022;-48
2021/01/03 06:58:25;;;;;;;11.25;9.25;;;;;;;;;;4998755;28;20030;-48
2021/01/03 07:01:15;;;;;;;13.40;10.43;;;;;;;;;;4999583;28;20109;-48
2021/01/03 07:03:41;;;;;;;12.98;10.35;;;;;;;;;;4998823;28;20515;-48
2021/01/03 07:06:07;;;;;;;12.05;10.20;;;;;;;;;;5008596;28;20101;-48
2021/01/03 07:08:47;;;;;;;14.13;10.25;;;;;;;;;;4989326;28;20026;-48
2021/01/03 07:11:37;;;;;;;12.27;10.02;;;;;;;;;;4992296;28;20029;-48
2021/01/03 07:14:03;;;;;;;11.68;9.90;;;;;;;;;;4999860;28;20495;-48
2021/01/03 07:16:48;;;;;;;12.15;10.18;;;;;;;;;;4999020;28;20018;-47
2021/01/03 07:19:17;;;;;;;12.73;10.02;;;;;;;;;;5003834;28;20072;-48
2021/01/03 07:21:43;;;;;;;14.10;10.68;;;;;;;;;;5006119;28;20040;-47
2021/01/03 07:24:41;;;;;;;11.38;9.40;;;;;;;;;;5002312;28;20125;-48
2021/01/03 07:27:27;;;;;;;12.23;10.13;;;;;;;;;;4975824;28;20153;-48
2021/01/03 07:29:55;;;;;;;12.60;10.48;;;;;;;;;;5002490;28;20041;-49
2021/01/03 07:32:45;;;;;;;11.57;9.73;;;;;;;;;;5003078;28;20496;-48
2021/01/03 07:35:12;;;;;;;12.60;10.15;;;;;;;;;;4993769;28;20030;-48
2021/01/03 07:37:38;;;;;;;13.05;10.02;;;;;;;;;;4999939;28;20496;-47
2021/01/03 07:40:05;;;;;;;13.07;9.90;;;;;;;;;;5003232;28;20026;-47
2021/01/03 07:42:32;;;;;;;11.23;9.68;;;;;;;;;;5003256;28;20034;-47
2021/01/03 07:44:58;;;;;;;12.38;10.77;;;;;;;;;;5007913;28;20507;-49
2021/01/03 07:47:34;;;;;;;12.95;10.50;;;;;;;;;;5000754;28;20496;-48
2021/01/03 07:50:16;;;;;;;12.95;10.68;;;;;;;;;;5002776;28;20037;-48
2021/01/03 07:52:42;;;;;;;13.32;10.35;;;;;;;;;;5001904;28;20041;-48
2021/01/03 07:55:12;;;;;;;13.45;10.55;;;;;;;;;;5001809;28;20045;-48
2021/01/03 07:57:38;;;;;;;13.10;10.07;;;;;;;;;;5000859;28;20019;-47
2021/01/03 08:00:05;;;;;;;12.45;10.35;;;;;;;;;;5002719;28;20022;-48
2021/01/03 08:02:31;;;;;;;13.40;11.02;;;;;;;;;;4999872;28;20499;-47
2021/01/03 08:04:57;;;;;;;13.40;11.05;;;;;;;;;;5002427;28;20418;-48
2021/01/03 08:07:23;;;;;;;12.85;10.98;;;;;;;;;;5002375;28;20480;-48
2021/01/03 08:09:49;;;;;;;12.90;10.95;;;;;;;;;;5001598;28;20092;-47
2021/01/03 08:12:21;;;;;;;13.13;11.32;;;;;;;;;;5002381;28;20029;-48
2021/01/03 08:14:47;;;;;;;14.02;11.50;;;;;;;;;;5005165;28;20023;-48
2021/01/03 08:17:20;;;;;;;16.88;12.75;;;;;;;;;;4988444;28;20037;-48
2021/01/03 08:19:46;;;;;;;15.15;12.82;;;;;;;;;;5002447;28;20484;-47
2021/01/03 08:22:12;;;;;;;14.68;11.98;;;;;;;;;;5001149;28;20034;-48
2021/01/03 08:24:38;;;;;;;14.73;12.57;;;;;;;;;;5000743;28;20034;-47
2021/01/03 08:27:11;;;;;;;15.65;12.85;;;;;;;;;;5002392;28;20022;-49
2021/01/03 08:29:37;;;;;;;14.70;12.93;;;;;;;;;;5002713;28;20033;-48
2021/01/03 08:32:15;;;;;;;15.98;12.60;;;;;;;;;;5000638;28;20033;-47
2021/01/03 08:34:42;;;;;;;14.93;12.75;;;;;;;;;;5002876;28;20046;-48
2021/01/03 08:37:18;;;;;;;15.07;12.88;;;;;;;;;;4999311;28;20385;-49
2021/01/03 08:39:44;;;;;;;15.90;13.80;;;;;;;;;;5001236;28;20030;-48
2021/01/03 08:42:12;;;;;;;17.58;14.32;;;;;;;;;;5002393;28;20117;-48
2021/01/03 08:44:39;;;;;;;15.05;13.10;;;;;;;;;;5000388;28;20038;-48
2021/01/03 08:47:12;;;;;;;15.85;13.45;;;;;;;;;;5002194;28;20093;-48
2021/01/03 08:49:39;;;;;;;15.60;13.27;;;;;;;;;;4998570;28;20502;-48
2021/01/03 08:52:06;;;;;;;16.92;13.73;;;;;;;;;;5002018;28;20036;-48
2021/01/03 08:54:32;;;;;;;16.13;13.80;;;;;;;;;;5002151;28;20028;-49
2021/01/03 08:56:58;;;;;;;15.88;13.15;;;;;;;;;;5001464;28;20097;-47
2021/01/03 08:59:23;;;;;;;17.23;14.23;;;;;;;;;;5000476;28;20037;-47
2021/01/03 09:01:51;;;;;;;17.23;13.55;;;;;;;;;;5005015;28;20102;-47
2021/01/03 09:04:20;;;;;;;16.23;14.20;;;;;;;;;;5002359;28;20386;-47
2021/01/03 09:06:56;;;;;;;15.75;13.35;;;;;;;;;;5004129;28;20084;-48
2021/01/03 09:09:23;;;;;;;16.15;13.20;;;;;;;;;;5000394;28;20398;-49
2021/01/03 09:11:56;;;;;;;15.93;13.48;;;;;;;;;;5002537;28;20112;-48
2021/01/03 09:14:33;;;;;;;15.95;13.68;;;;;;;;;;5005735;28;20037;-48
2021/01/03 09:17:05;;;;;;;18.45;14.45;;;;;;;;;;5004588;28;20025;-48
2021/01/03 09:19:47;;;;;;;18.20;14.15;;;;;;;;;;4999388;28;20029;-48
2021/01/03 09:22:13;;;;;;;16.63;14.40;;;;;;;;;;4998931;28;20026;-48
2021/01/03 09:24:39;;;;;;;14.90;13.25;;;;;;;;;;4998400;28;20069;-48
2021/01/03 09:27:05;;;;;;;15.45;13.57;;;;;;;;;;5007538;28;20021;-48
2021/01/03 09:29:32;;;;;;;16.52;13.45;;;;;;;;;;5001503;28;20026;-48
2021/01/03 09:32:01;;;;;;;16.23;14.18;;;;;;;;;;5001175;28;20030;-47
2021/01/03 09:34:51;;;;;;;17.30;13.82;;;;;;;;;;5000527;28;20026;-48
2021/01/03 09:37:27;;;;;;;16.83;14.05;;;;;;;;;;4994614;28;20052;-48
2021/01/03 09:39:56;;;;;;;16.42;13.65;;;;;;;;;;5005862;28;20081;-48
2021/01/03 09:42:57;;;;;;;16.48;14.20;;;;;;;;;;5001315;28;20034;-47
2021/01/03 09:45:36;;;;;;;17.17;14.07;;;;;;;;;;4954199;28;20066;-47
2021/01/03 09:48:03;;;;;;;17.63;13.73;;;;;;;;;;4994223;28;20500;-48
2021/01/03 09:50:29;;;;;;;16.88;14.35;;;;;;;;;;5000562;28;20026;-49
2021/01/03 09:52:55;;;;;;;18.15;14.65;;;;;;;;;;5000381;28;20444;-48
2021/01/03 09:55:23;;;;;;;17.95;14.52;;;;;;;;;;5001002;28;20035;-48
2021/01/03 09:57:49;;;;;;;16.73;14.10;;;;;;;;;;5001792;28;20027;-48
2021/01/03 10:00:16;;;;;;;18.63;14.68;;;;;;;;;;5001576;28;20392;-49
2021/01/03 10:02:42;;;;;;;14.15;10.80;;;;;;;;;;5003613;28;20057;-46
2021/01/03 10:05:27;;;;;;;11.10;7.57;;;;;;;;;;5001372;28;20029;-46
2021/01/03 10:08:00;;;;;;;8.00;5.10;;;;;;;;;;5000226;28;20018;-48
2021/01/03 10:10:45;;;;;;;9.38;5.63;;;;;;;;;;5000011;28;20396;-48
2021/01/03 10:13:11;;;;;;;9.32;5.47;;;;;;;;;;5000258;28;20029;-47
2021/01/03 10:15:37;;;;;;;8.00;5.35;;;;;;;;;;4998080;28;20026;-47
2021/01/03 10:18:06;;;;;;;9.30;5.28;;;;;;;;;;5004816;28;20022;-48
2021/01/03 10:20:35;;;;;;;8.73;5.45;;;;;;;;;;4999529;28;20480;-48
2021/01/03 10:23:00;;;;;;;8.23;5.60;;;;;;;;;;5000398;28;20084;-47
2021/01/03 10:25:26;;;;;;;8.90;5.32;;;;;;;;;;5000489;28;20029;-48
2021/01/03 10:28:03;;;;;;;8.93;5.95;;;;;;;;;;5004165;28;20081;-48
2021/01/03 10:30:29;;;;;;;9.15;5.80;;;;;;;;;;4998046;28;20507;-49
2021/01/03 10:32:55;;;;;;;8.57;5.55;;;;;;;;;;4997755;28;20031;-51
2021/01/03 10:35:21;;;;;;;9.00;5.97;;;;;;;;;;5006947;28;20054;-49
2021/01/03 10:37:47;;;;;;;10.35;6.07;;;;;;;;;;5004143;28;20023;-48
2021/01/03 10:40:13;;;;;;;9.20;6.00;;;;;;;;;;5004573;28;20381;-47
2021/01/03 10:42:39;;;;;;;10.32;6.32;;;;;;;;;;4998289;28;20037;-48
2021/01/03 10:45:06;;;;;;;9.77;6.40;;;;;;;;;;5001857;28;20359;-48
2021/01/03 10:47:32;;;;;;;9.77;6.50;;;;;;;;;;5002018;28;20153;-47
2021/01/03 10:49:58;;;;;;;9.65;6.82;;;;;;;;;;4999499;28;20113;-47
2021/01/03 10:52:24;;;;;;;11.00;7.22;;;;;;;;;;5007957;28;20026;-47
2021/01/03 10:54:50;;;;;;;12.82;8.40;;;;;;;;;;4998229;28;20023;-44
2021/01/03 10:57:16;;;;;;;10.98;7.50;;;;;;;;;;4999274;28;20027;-44
2021/01/03 10:59:41;;;;;;;11.15;7.55;;;;;;;;;;5003102;28;20041;-44
2021/01/03 11:02:08;;;;;;;12.15;8.10;;;;;;;;;;5000041;28;20032;-44
2021/01/03 11:04:33;;;;;;;10.80;7.45;;;;;;;;;;4999868;28;20034;-44
2021/01/03 11:07:01;;;;;;;11.95;7.53;;;;;;;;;;4999266;28;20504;-44
2021/01/03 11:09:31;;;;;;;11.82;7.78;;;;;;;;;;4998794;28;20488;-44
2021/01/03 11:12:00;;;;;;;10.57;7.32;;;;;;;;;;4999875;28;20388;-44
2021/01/03 11:14:26;;;;;;;9.70;7.18;;;;;;;;;;4998833;28;20030;-44
2021/01/03 11:16:52;;;;;;;10.68;7.18;;;;;;;;;;4998947;28;20026;-44
2021/01/03 11:19:18;;;;;;;11.20;7.35;;;;;;;;;;5000531;28;20089;-44
2021/01/03 11:21:44;;;;;;;10.45;7.13;;;;;;;;;;4999729;28;20484;-44
2021/01/03 11:24:11;;;;;;;9.95;6.82;;;;;;;;;;4998531;28;20026;-44
2021/01/03 11:26:37;;;;;;;10.45;7.13;;;;;;;;;;5002714;28;20067;-44
2021/01/03 11:29:04;;;;;;;11.95;7.50;;;;;;;;;;4999589;28;20026;-44
2021/01/03 11:31:30;;;;;;;11.30;6.60;;;;;;;;;;5001010;28;20038;-44
2021/01/03 11:33:56;;;;;;;10.15;6.55;;;;;;;;;;5000031;28;20030;-44
2021/01/03 11:36:22;;;;;;;9.20;6.68;;;;;;;;;;5001120;28;20034;-44
2021/01/03 11:38:48;;;;;;;9.85;6.82;;;;;;;;;;5000026;28;20496;-46
2021/01/03 11:41:14;;;;;;;10.90;6.95;;;;;;;;;;5001340;28;20034;-45
2021/01/03 11:43:40;;;;;;;10.93;7.07;;;;;;;;;;4993573;28;20026;-44
2021/01/03 11:46:06;;;;;;;11.23;6.43;;;;;;;;;;4997942;28;20022;-44
2021/01/03 11:48:33;;;;;;;10.75;6.40;;;;;;;;;;5000605;28;20361;-44
2021/01/03 11:50:59;;;;;;;10.85;6.55;;;;;;;;;;4994707;28;20034;-44
2021/01/03 11:53:25;;;;;;;8.88;6.07;;;;;;;;;;5000738;28;20026;-44
2021/01/03 11:55:51;;;;;;;9.10;6.03;;;;;;;;;;5000456;28;20054;-44
2021/01/03 11:58:17;;;;;;;9.95;6.43;;;;;;;;;;5005382;28;20026;-44
2021/01/03 12:00:43;;;;;;;9.70;6.30;;;;;;;;;;5000997;28;20120;-45
2021/01/03 12:03:09;;;;;;;8.75;5.72;;;;;;;;;;5002324;28;20022;-44
2021/01/03 12:05:34;;;;;;;9.77;6.10;;;;;;;;;;5001742;28;20432;-44
2021/01/03 12:08:00;;;;;;;8.98;6.10;;;;;;;;;;4998543;28;20080;-45
2021/01/03 12:10:26;;;;;;;8.18;5.97;;;;;;;;;;4999745;28;20390;-45
2021/01/03 12:12:52;;;;;;;9.10;5.97;;;;;;;;;;4996580;28;20080;-45
2021/01/03 12:15:18;;;;;;;8.73;6.13;;;;;;;;;;5002805;28;20030;-45
2021/01/03 12:17:44;;;;;;;8.52;5.88;;;;;;;;;;5001223;28;20026;-45
2021/01/03 12:20:11;;;;;;;8.15;5.65;;;;;;;;;;5002533;28;20027;-45
2021/01/03 12:22:37;;;;;;;8.18;5.80;;;;;;;;;;5000945;28;20109;-45
2021/01/03 12:25:04;;;;;;;8.73;5.80;;;;;;;;;;5008191;28;20464;-44
2021/01/03 12:27:30;;;;;;;8.68;5.85;;;;;;;;;;5001701;28;20476;-44
2021/01/03 12:29:56;;;;;;;8.25;5.28;;;;;;;;;;5001847;28;20031;-44
2021/01/03 12:32:22;;;;;;;8.20;5.65;;;;;;;;;;5000415;28;20022;-44
2021/01/03 12:34:48;;;;;;;8.02;5.32;;;;;;;;;;4998329;28;20405;-46
2021/01/03 12:37:18;;;;;;;8.13;5.65;;;;;;;;;;4997469;28;20034;-45
2021/01/03 12:39:44;;;;;;;8.57;5.45;;;;;;;;;;5001885;28;20661;-45
2021/01/03 12:42:11;;;;;;;8.52;5.32;;;;;;;;;;4998687;28;20045;-45
2021/01/03 12:44:37;;;;;;;8.63;5.88;;;;;;;;;;4998219;28;20057;-44
2021/01/03 12:47:03;;;;;;;7.95;5.47;;;;;;;;;;5013730;28;20453;-45
2021/01/03 12:49:29;;;;;;;8.10;5.30;;;;;;;;;;4998128;28;20026;-44
2021/01/03 12:51:55;;;;;;;7.75;5.35;;;;;;;;;;4998586;28;20034;-44
2021/01/03 12:54:21;;;;;;;9.60;5.82;;;;;;;;;;5000049;28;20022;-44
2021/01/03 12:56:47;;;;;;;8.38;5.47;;;;;;;;;;5001000;28;20390;-44
2021/01/03 12:59:13;;;;;;;7.43;5.15;;;;;;;;;;4999929;28;20026;-44
2021/01/03 13:01:39;;;;;;;8.15;5.13;;;;;;;;;;4997630;28;20430;-44
2021/01/03 13:04:06;;;;;;;7.43;5.00;;;;;;;;;;5013669;28;20113;-44
2021/01/03 13:06:34;;;;;;;8.80;4.93;;;;;;;;;;5002300;28;20034;-45
2021/01/03 13:09:01;;;;;;;8.90;4.97;;;;;;;;;;4998227;28;20109;-47
2021/01/03 13:11:27;;;;;;;8.32;5.32;;;;;;;;;;5006689;28;20057;-45
2021/01/03 13:13:53;;;;;;;7.95;5.43;;;;;;;;;;5014207;28;20033;-45
2021/01/03 13:16:19;;;;;;;7.43;5.07;;;;;;;;;;4997441;28;20030;-46
2021/01/03 13:18:47;;;;;;;8.00;4.82;;;;;;;;;;4996786;28;20030;-45
2021/01/03 13:21:13;;;;;;;8.05;5.07;;;;;;;;;;4996981;28;20097;-44
2021/01/03 13:23:39;;;;;;;7.05;4.65;;;;;;;;;;5000558;28;20034;-47
2021/01/03 13:26:05;;;;;;;8.23;4.78;;;;;;;;;;4996492;28;20034;-44
2021/01/03 13:28:31;;;;;;;7.78;4.80;;;;;;;;;;4997240;28;20089;-45
2021/01/03 13:30:57;;;;;;;7.80;4.68;;;;;;;;;;4996722;28;20030;-44
2021/01/03 13:33:23;;;;;;;7.40;4.97;;;;;;;;;;4996928;28;20065;-44
2021/01/03 13:35:49;;;;;;;7.78;4.70;;;;;;;;;;5000359;28;20033;-45
2021/01/03 13:38:15;;;;;;;7.57;4.50;;;;;;;;;;4998578;28;20034;-44
2021/01/03 13:40:41;;;;;;;6.38;4.28;;;;;;;;;;5000157;28;20134;-44
2021/01/03 13:43:07;;;;;;;6.57;4.57;;;;;;;;;;4999373;28;20024;-45
2021/01/03 13:45:33;;;;;;;6.97;4.88;;;;;;;;;;5000609;28;20022;-45
2021/01/03 13:47:59;;;;;;;6.38;4.20;;;;;;;;;;5006743;28;20030;-46
2021/01/03 13:50:25;;;;;;;7.35;4.70;;;;;;;;;;5000583;28;20492;-45
2021/01/03 13:52:51;;;;;;;7.07;4.68;;;;;;;;;;4999476;28;20026;-45
2021/01/03 13:55:17;;;;;;;7.15;4.43;;;;;;;;;;4999493;28;20029;-45
2021/01/03 13:57:43;;;;;;;7.85;4.43;;;;;;;;;;4997552;28;20037;-45
2021/01/03 14:00:10;;;;;;;6.80;4.57;;;;;;;;;;4999792;28;20381;-44
2021/01/03 14:02:36;;;;;;;6.35;4.00;;;;;;;;;;4999426;28;20038;-45
2021/01/03 14:05:02;;;;;;;6.43;4.25;;;;;;;;;;5006045;28;20033;-44
2021/01/03 14:07:28;;;;;;;6.93;4.43;;;;;;;;;;4999077;28;20030;-44
2021/01/03 14:09:54;;;;;;;6.25;4.05;;;;;;;;;;5002067;28;20039;-47
2021/01/03 14:12:20;;;;;;;6.07;4.05;;;;;;;;;;5018048;28;20041;-45
2021/01/03 14:14:46;;;;;;;5.97;4.18;;;;;;;;;;5003639;28;20022;-45
2021/01/03 14:17:15;;;;;;;7.32;4.40;;;;;;;;;;5002533;28;20026;-44
2021/01/03 14:19:41;;;;;;;7.10;4.35;;;;;;;;;;5002546;28;20050;-45
2021/01/03 14:22:07;;;;;;;7.15;4.65;;;;;;;;;;5007603;28;20061;-45
2021/01/03 14:24:33;;;;;;;6.97;4.30;;;;;;;;;;5003069;28;20081;-45
2021/01/03 14:26:59;;;;;;;;;;;;;;;;;;5002316;28;20069;-44
2021/01/03 14:29:25;;;;;;;;;;;;;;;;;;5000702;28;19910;-47
2021/01/03 14:31:51;;;;;;;;;;;;;;;;;;5002098;28;19956;-46
2021/01/03 14:34:17;;;;;;;;;;;;;;;;;;5000478;28;19933;-44
2021/01/03 14:36:43;;;;;;;;;;;;;;;;;;5000562;28;20475;-46
2021/01/03 14:39:09;;;;;;;;;;;;;;;;;;5000373;28;19952;-46
2021/01/03 14:41:35;;;;;;;;;;;;;;;;;;5001610;28;20379;-47
2021/01/03 14:44:00;;;;;;;;;;;;;;;;;;5000356;28;20339;-46